createdAt,value
2023-01-23T00:00:48.724Z,100080.52
2023-01-23T00:06:40.029Z,100094.92
2023-01-23T00:12:29.357Z,100092.77
2023-01-23T00:18:01.774Z,100097.73
2023-01-23T00:23:55.952Z,100101.36
2023-01-23T00:29:15.492Z,100111.58
2023-01-23T00:34:36.391Z,100115.04
2023-01-23T00:40:12.817Z,100117.38
2023-01-23T00:46:00.727Z,100124.00
2023-01-23T00:51:53.787Z,100132.71
2023-01-23T00:57:11.238Z,100135.88
2023-01-23T01:02:36.312Z,100137.98
2023-01-23T01:08:01.901Z,100146.15
2023-01-23T01:13:07.539Z,100143.54
2023-01-23T01:18:59.857Z,100139.59
2023-01-23T01:24:38.254Z,100140.77
2023-01-23T01:30:41.046Z,100139.78
2023-01-23T01:36:39.254Z,100139.91
2023-01-23T01:41:55.531Z,100155.47
2023-01-23T01:47:07.991Z,100156.48
2023-01-23T01:53:28.490Z,100153.97
2023-01-23T02:00:23.704Z,100164.20
2023-01-23T02:07:01.017Z,100171.27
2023-01-23T02:13:19.023Z,100175.79
2023-01-23T02:19:19.872Z,100170.05
2023-01-23T02:24:40.356Z,100165.95
2023-01-23T02:30:18.566Z,100176.38
2023-01-23T02:35:30.391Z,100175.14
2023-01-23T02:41:01.791Z,100179.16
2023-01-23T02:46:18.652Z,100195.19
2023-01-23T02:51:45.168Z,100193.03
2023-01-23T02:56:58.282Z,100194.14
2023-01-23T03:02:18.946Z,100197.50
2023-01-23T03:07:45.618Z,100193.80
2023-01-23T03:13:15.159Z,100202.79
2023-01-23T03:18:54.698Z,100196.77
2023-01-23T03:24:44.897Z,100192.86
2023-01-23T03:30:25.277Z,100192.23
2023-01-23T03:36:31.980Z,100194.77
2023-01-23T03:41:56.341Z,100198.69
2023-01-23T03:47:12.110Z,100205.92
2023-01-23T03:52:59.243Z,100207.59
2023-01-23T03:58:41.054Z,100204.73
2023-01-23T04:04:04.067Z,100198.81
2023-01-23T04:09:12.374Z,100205.71
2023-01-23T04:14:19.486Z,100205.23
2023-01-23T04:19:56.761Z,100209.15
2023-01-23T04:26:23.980Z,100218.10
2023-01-23T04:31:32.758Z,100221.27
2023-01-23T04:36:46.744Z,100219.16
2023-01-23T04:42:29.440Z,100226.30
2023-01-23T04:48:07.876Z,100237.21
2023-01-23T04:53:26.208Z,100258.31
2023-01-23T04:59:13.241Z,100259.77
2023-01-23T05:04:39.549Z,100266.35
2023-01-23T05:10:08.593Z,100267.87
2023-01-23T05:15:30.834Z,100258.95
2023-01-23T05:21:17.410Z,100257.63
2023-01-23T05:27:20.020Z,100250.95
2023-01-23T05:32:52.493Z,100255.73
2023-01-23T05:38:55.121Z,100251.35
2023-01-23T05:44:39.250Z,100257.45
2023-01-23T05:50:04.616Z,100266.76
2023-01-23T05:55:19.170Z,100279.52
2023-01-23T06:00:24.991Z,100285.59
2023-01-23T06:06:10.050Z,100291.79
2023-01-23T06:11:22.238Z,100295.74
2023-01-23T06:16:35.093Z,100300.33
2023-01-23T06:21:43.191Z,100309.78
2023-01-23T06:26:50.617Z,100325.95
2023-01-23T06:32:00.074Z,100342.45
2023-01-23T06:37:31.680Z,100344.05
2023-01-23T06:43:32.147Z,100348.85
2023-01-23T06:48:58.557Z,100362.47
2023-01-23T06:54:20.577Z,100366.52
2023-01-23T07:00:20.527Z,100366.86
2023-01-23T07:06:30.551Z,100370.81
2023-01-23T07:11:54.748Z,100373.07
2023-01-23T07:17:39.997Z,100373.48
2023-01-23T07:22:58.893Z,100377.41
2023-01-23T07:28:20.968Z,100376.52
2023-01-23T07:33:27.963Z,100377.71
2023-01-23T07:38:33.591Z,100379.07
2023-01-23T07:43:39.597Z,100380.38
2023-01-23T07:48:42.156Z,100381.45
2023-01-23T07:53:50.062Z,100378.02
2023-01-23T07:58:58.842Z,100380.89
2023-01-23T08:04:06.461Z,100383.99
2023-01-23T08:09:50.923Z,100385.78
2023-01-23T08:15:31.707Z,100386.44
2023-01-23T08:21:37.656Z,100395.22
2023-01-23T08:27:15.529Z,100400.89
2023-01-23T08:32:34.780Z,100401.84
2023-01-23T08:37:41.440Z,100405.33
2023-01-23T08:43:14.908Z,100413.78
2023-01-23T08:48:21.984Z,100420.31
2023-01-23T08:53:25.527Z,100424.52
2023-01-23T08:58:52.396Z,100420.69
2023-01-23T09:04:30.820Z,100424.14
2023-01-23T09:10:19.246Z,100428.94
2023-01-23T09:15:56.942Z,100429.76
2023-01-23T09:22:11.758Z,100430.34
2023-01-23T09:27:59.612Z,100434.84
2023-01-23T09:33:08.336Z,100428.70
2023-01-23T09:38:16.266Z,100429.10
2023-01-23T09:43:25.605Z,100421.25
2023-01-23T09:49:01.770Z,100416.29
2023-01-23T09:54:49.965Z,100418.02
2023-01-23T10:00:59.147Z,100413.42
2023-01-23T10:06:33.535Z,100407.22
2023-01-23T10:13:08.617Z,100405.54
2023-01-23T10:18:57.763Z,100405.01
2023-01-23T10:24:47.282Z,100403.05
2023-01-23T10:30:21.376Z,100399.64
2023-01-23T10:35:44.431Z,100402.19
2023-01-23T10:41:08.822Z,100400.30
2023-01-23T10:46:20.655Z,100394.73
2023-01-23T10:52:47.125Z,100399.02
2023-01-23T10:58:03.874Z,100396.08
2023-01-23T11:03:40.770Z,100396.84
2023-01-23T11:09:05.498Z,100395.64
2023-01-23T11:15:16.727Z,100393.52
2023-01-23T11:20:52.235Z,100390.04
2023-01-23T11:26:06.788Z,100388.66
2023-01-23T11:31:26.658Z,100383.56
2023-01-23T11:36:56.185Z,100377.84
2023-01-23T11:42:29.729Z,100375.13
2023-01-23T11:48:25.090Z,100370.09
2023-01-23T11:53:47.131Z,100368.77
2023-01-23T11:59:04.003Z,100368.80
2023-01-23T12:05:20.795Z,100360.25
2023-01-23T12:11:00.461Z,100354.23
2023-01-23T12:16:12.829Z,100347.48
2023-01-23T12:21:49.096Z,100349.19
2023-01-23T12:27:33.738Z,100344.36
2023-01-23T12:33:07.527Z,100344.17
2023-01-23T12:38:48.839Z,100348.05
2023-01-23T12:44:43.094Z,100345.87
2023-01-23T12:50:41.956Z,100339.83
2023-01-23T12:56:35.864Z,100338.98
2023-01-23T13:02:21.176Z,100338.53
2023-01-23T13:08:13.115Z,100342.89
2023-01-23T13:13:29.809Z,100344.48
2023-01-23T13:19:06.753Z,100347.28
2023-01-23T13:24:47.944Z,100354.50
2023-01-23T13:30:22.548Z,100361.89
2023-01-23T13:35:44.248Z,100362.45
2023-01-23T13:41:13.539Z,100366.55
2023-01-23T14:20:39.473Z,100370.10
2023-01-23T14:25:42.091Z,100379.17
2023-01-23T14:30:59.299Z,100378.12
2023-01-23T14:36:17.992Z,100382.08
2023-01-23T14:41:27.998Z,100382.39
2023-01-23T14:46:36.369Z,100381.53
2023-01-23T14:51:50.267Z,100379.67
2023-01-23T14:56:55.914Z,100371.92
2023-01-23T15:02:01.866Z,100364.48
2023-01-23T15:07:14.429Z,100358.04
2023-01-23T15:12:34.481Z,100364.61
2023-01-23T15:17:44.739Z,100375.73
2023-01-23T15:22:46.859Z,100381.58
2023-01-23T15:27:48.791Z,100385.61
2023-01-23T15:33:39.935Z,100390.57
2023-01-23T15:38:51.166Z,100388.35
2023-01-23T15:44:02.804Z,100392.16
2023-01-23T15:49:06.911Z,100392.15
2023-01-23T15:54:24.762Z,100390.95
2023-01-23T15:59:34.680Z,100391.79
2023-01-23T16:04:40.688Z,100396.30
2023-01-23T16:09:46.680Z,100395.94
2023-01-23T16:15:21.179Z,100393.17
2023-01-23T16:20:45.609Z,100394.38
2023-01-23T16:26:08.301Z,100402.65
2023-01-23T16:31:22.664Z,100404.94
2023-01-23T16:36:32.828Z,100409.82
2023-01-23T16:41:46.584Z,100416.13
2023-01-23T16:46:50.307Z,100422.58
2023-01-23T16:52:00.788Z,100426.89
2023-01-23T16:57:23.370Z,100430.36
2023-01-23T17:02:31.248Z,100429.52
2023-01-23T17:08:41.384Z,100429.03
2023-01-23T17:14:02.047Z,100428.34
2023-01-23T17:19:43.346Z,100430.08
2023-01-23T17:25:31.982Z,100429.58
2023-01-23T17:31:51.842Z,100428.65
2023-01-23T17:37:17.291Z,100433.73
2023-01-23T17:42:21.794Z,100438.27
2023-01-23T17:48:07.194Z,100441.04
2023-01-23T17:53:19.263Z,100445.38
2023-01-23T17:58:21.331Z,100445.25
2023-01-23T18:03:26.933Z,100444.25
2023-01-23T18:08:35.200Z,100446.63
2023-01-23T18:14:20.925Z,100451.69
2023-01-23T18:19:31.294Z,100448.52
2023-01-23T18:24:34.346Z,100454.83
2023-01-23T18:30:20.395Z,100448.67
2023-01-23T18:35:46.771Z,100453.13
2023-01-23T18:41:06.371Z,100446.33
2023-01-23T18:46:27.021Z,100447.89
2023-01-23T18:51:32.194Z,100450.92
2023-01-23T18:57:07.693Z,100454.02
2023-01-23T19:02:23.243Z,100453.78
2023-01-23T19:07:25.349Z,100457.29
2023-01-23T19:12:33.713Z,100463.48
2023-01-23T19:17:49.585Z,100458.71
2023-01-23T19:23:30.574Z,100455.52
2023-01-23T19:28:40.137Z,100454.59
2023-01-23T19:33:42.061Z,100457.05
2023-01-23T19:38:46.690Z,100458.02
2023-01-23T19:43:50.791Z,100457.73
2023-01-23T19:49:03.934Z,100460.77
2023-01-23T19:54:25.096Z,100461.75
2023-01-23T19:59:37.611Z,100461.06
2023-01-23T20:04:59.572Z,100460.06
2023-01-23T20:10:07.702Z,100462.35
2023-01-23T20:15:11.793Z,100465.59
2023-01-23T20:20:37.407Z,100470.57
2023-01-23T20:25:39.595Z,100473.31
2023-01-23T20:30:42.530Z,100472.30
2023-01-23T20:35:58.369Z,100478.19
2023-01-23T20:41:20.899Z,100473.73
2023-01-23T20:46:37.545Z,100475.61
2023-01-23T20:51:44.634Z,100475.33
2023-01-23T20:56:51.105Z,100472.58
2023-01-23T21:02:27.519Z,100470.77
2023-01-23T21:07:33.023Z,100475.48
2023-01-23T21:12:37.969Z,100476.13
2023-01-23T21:17:39.441Z,100481.16
2023-01-23T21:22:49.318Z,100478.34
2023-01-23T21:27:57.481Z,100479.25
2023-01-23T21:33:04.186Z,100480.02
2023-01-23T21:38:12.000Z,100483.39
2023-01-23T21:43:17.203Z,100482.34
2023-01-23T21:48:19.604Z,100485.92
2023-01-23T21:53:27.597Z,100481.66
2023-01-23T21:58:31.857Z,100482.38
2023-01-23T22:03:56.862Z,100484.30
2023-01-23T22:08:58.934Z,100492.88
2023-01-23T22:15:07.159Z,100492.91
2023-01-23T22:21:23.999Z,100496.48
2023-01-23T22:26:40.594Z,100493.98
2023-01-23T22:31:55.849Z,100490.80
2023-01-23T22:37:03.463Z,100491.11
2023-01-23T22:42:13.293Z,100491.96
2023-01-23T22:47:15.439Z,100492.23
2023-01-23T22:52:45.379Z,100489.20
2023-01-23T22:57:52.383Z,100489.89
2023-01-23T23:03:03.474Z,100492.62
2023-01-23T23:08:13.779Z,100492.26
2023-01-23T23:13:18.757Z,100491.77
2023-01-23T23:18:23.686Z,100488.98
2023-01-23T23:23:29.028Z,100486.77
2023-01-23T23:28:51.732Z,100495.05
2023-01-23T23:34:57.115Z,100493.42
2023-01-23T23:40:02.517Z,100495.71
2023-01-23T23:45:06.029Z,100493.84
2023-01-23T23:50:22.044Z,100492.97
2023-01-23T23:55:30.612Z,100486.11
